Tuesday, January 22, 2019, 4:57 PM EST
Back to Local

KSFZ, Pawtucket, North Central State Airport

Location: Smithfield, RI, United States Lat: 41.917
Local Time: 4:57 PM EST (21:57 GMT) Lon: -71.5
Time Zone: US/Eastern Elev: 439 ft

Show me the last for .
Show Decoded

2019-01-22 15:56 METAR KSFZ 222056Z AUTO 32004KT 10SM CLR M04/M13 A3052 RMK AO2 SLP286 T10441133
                 53009 FZRANO =
2019-01-22 14:56 METAR KSFZ 221956Z AUTO 31009KT 10SM CLR M04/M14 A3050 RMK AO2 SLP278 T10441139
                 FZRANO =
2019-01-22 13:56 METAR KSFZ 221856Z AUTO 33008G15KT 10SM CLR M04/M14 A3048 RMK AO2 SLP274
                 T10441139 FZRANO =
2019-01-22 12:56 METAR KSFZ 221756Z AUTO 31011KT 10SM CLR M06/M14 A3049 RMK AO2 SLP277 T10561139
                 11056 21167 58003 FZRANO =
2019-01-22 11:56 METAR KSFZ 221656Z AUTO 31011G16KT 10SM CLR M07/M15 A3049 RMK AO2 SLP278
                 T10721150 FZRANO =
2019-01-22 10:56 METAR KSFZ 221556Z AUTO 32011G18KT 10SM CLR M08/M17 A3050 RMK AO2 SLP280
                 T10831167 FZRANO =
2019-01-22 09:56 METAR KSFZ 221456Z AUTO 31012G16KT 10SM CLR M11/M17 A3050 RMK AO2 SLP280
                 T11061167 51024 FZRANO =
2019-01-22 08:56 METAR KSFZ 221356Z AUTO 30011G17KT 10SM CLR M13/M18 A3047 RMK AO2 SLP273
                 T11331183 FZRANO =
2019-01-22 07:56 METAR KSFZ 221256Z AUTO 29009G15KT 10SM CLR M15/M20 A3046 RMK AO2 SLP267
                 T11501200 FZRANO =
2019-01-22 06:56 METAR KSFZ 221156Z AUTO 31006KT 10SM CLR M16/M21 A3042 RMK AO2 SLP256 T11611206
                 11161 21172 53059 FZRANO =
2019-01-22 05:56 METAR KSFZ 221056Z AUTO 31010G22KT 10SM CLR M16/M21 A3035 RMK AO2 SLP232
                 T11611211 FZRANO =
2019-01-22 04:56 METAR KSFZ 220956Z AUTO 31013G19KT 10SM CLR M16/M21 A3030 RMK AO2 SLP214
                 T11611211 FZRANO =
2019-01-22 03:56 METAR KSFZ 220856Z AUTO 33010KT 10SM CLR M17/M22 A3025 RMK AO2 SLP197 T11671217
                 53029 FZRANO =
2019-01-22 01:56 METAR KSFZ 220656Z AUTO 31013G17KT 10SM CLR M17/M22 A3019 RMK AO2 SLP176
                 T11721217 FZRANO =
2019-01-22 00:56 METAR KSFZ 220556Z AUTO 30011KT 10SM CLR M17/M22 A3016 RMK AO2 SLP168 60000
                 T11721217 11161 21172 51026 FZRANO =
2019-01-21 23:56 METAR KSFZ 220456Z AUTO 29009KT 10SM CLR M17/M22 A3015 RMK AO2 SLP163 T11721217
                 411501194 FZRANO =
2019-01-21 22:56 METAR KSFZ 220356Z AUTO 32010G18KT 10SM SCT065 BKN085 M17/M22 A3012 RMK AO2
                 SLP155 T11721217 FZRANO =
2019-01-21 21:56 METAR KSFZ 220256Z AUTO 32008G16KT 10SM BKN080 M17/M21 A3009 RMK AO2 SLP142
                 60000 T11721211 53038 FZRANO =
2019-01-21 20:56 METAR KSFZ 220156Z AUTO 31016G22KT 10SM FEW100 M17/M21 A3005 RMK AO2 SLP129
                 T11671211 FZRANO =
2019-01-21 19:56 METAR KSFZ 220056Z AUTO 32013G29KT 10SM SCT050 OVC065 M16/M21 A3001 RMK AO2 PK
                 WND 31029/0049 SNE26 SLP116 P0000 T11611206 FZRANO =
2019-01-21 18:56 METAR KSFZ 212356Z AUTO 33012G17KT 9SM -SN OVC041 M17/M21 A2997 RMK AO2 SNB37
                 SLP104 P0000 60000 T11671206 11161 21178 53037 FZRANO =
2019-01-21 17:56 METAR KSFZ 212256Z AUTO 31011G18KT 10SM FEW043 BKN050 OVC070 M17/M21 A2993 RMK
                 AO2 SNE00 SLP091 P0000 T11721211 FZRANO =

Support USWX by starting your Amazon purchase here.